Time;durP1;ratioP1;P1;durP2;ratioP2;P2;SDS_P1;SDS_P2;PMS_P1;PMS_P2;Temp;Humidity;BMP_temperature;BMP_pressure;BME280_temperature;BME280_humidity;BME280_pressure;Samples;Min_cycle;Max_cycle;Signal;HPM_P1;HPM_P2
2022/12/23 00:00:26;;;;;;;7.23;3.20;;;26.40;55.00;;;;;;5041403;28;20307;-72
2022/12/23 00:02:54;;;;;;;8.10;3.27;;;26.40;57.30;;;;;;5052922;28;20650;-74
2022/12/23 00:05:21;;;;;;;3.70;2.70;;;26.50;56.90;;;;;;5050281;28;20287;-67
2022/12/23 00:07:48;;;;;;;5.27;3.10;;;26.40;55.50;;;;;;5050841;28;20184;-68
2022/12/23 00:10:16;;;;;;;7.50;3.20;;;26.70;56.00;;;;;;5052360;28;20180;-69
2022/12/23 00:15:29;;;;;;;2.60;2.23;;;26.80;54.40;;;;;;5045989;28;20182;-69
2022/12/23 00:17:56;;;;;;;4.47;2.40;;;26.70;52.60;;;;;;5053537;28;20184;-69
2022/12/23 00:20:23;;;;;;;6.97;2.87;;;26.80;52.20;;;;;;5053525;28;20215;-68
2022/12/23 00:23:06;;;;;;;4.57;2.50;;;27.00;51.60;;;;;;5054238;28;20187;-69
2022/12/23 00:25:43;;;;;;;4.90;2.83;;;27.10;51.40;;;;;;5051144;28;20610;-68
2022/12/23 00:28:16;;;;;;;4.40;2.37;;;27.30;52.60;;;;;;5054113;28;20183;-69
2022/12/23 00:30:55;;;;;;;7.57;2.70;;;27.70;51.70;;;;;;5053050;28;20214;-68
2022/12/23 00:33:25;;;;;;;5.17;2.70;;;28.00;50.30;;;;;;5052022;28;20191;-67
2022/12/23 00:35:53;;;;;;;5.70;2.77;;;27.80;51.90;;;;;;5041567;28;20184;-69
2022/12/23 00:44:03;;;;;;;7.87;2.73;;;28.00;49.70;;;;;;5053660;28;20280;-68
2022/12/23 00:46:31;;;;;;;3.57;2.37;;;28.20;49.10;;;;;;5053489;28;20540;-68
2022/12/23 00:51:43;;;;;;;3.57;2.37;;;27.80;50.10;;;;;;5053442;28;20713;-67
2022/12/23 00:54:11;;;;;;;5.73;2.30;;;28.30;49.20;;;;;;5053453;28;20190;-67
2022/12/23 00:56:38;;;;;;;9.80;2.60;;;28.60;48.10;;;;;;5053540;28;20183;-66
2022/12/23 00:59:05;;;;;;;7.67;3.00;;;28.80;48.10;;;;;;5053144;28;20196;-66
2022/12/23 01:07:04;;;;;;;5.30;2.60;;;28.90;47.40;;;;;;5046805;28;20190;-67
2022/12/23 01:09:32;;;;;;;4.30;2.20;;;29.00;45.90;;;;;;5052862;28;20176;-68
2022/12/23 01:11:59;;;;;;;5.27;2.47;;;28.80;46.50;;;;;;5053174;28;20176;-66
2022/12/23 01:14:27;;;;;;;5.70;2.50;;;28.80;45.80;;;;;;5053080;28;20184;-66
2022/12/23 01:16:54;;;;;;;5.43;2.33;;;28.70;45.60;;;;;;5052888;28;20532;-66
2022/12/23 01:19:21;;;;;;;5.07;2.30;;;29.00;45.20;;;;;;5052499;28;20245;-69
2022/12/23 01:21:49;;;;;;;3.60;2.30;;;29.20;44.40;;;;;;5053092;28;20168;-70
2022/12/23 01:24:16;;;;;;;11.03;2.53;;;29.30;44.50;;;;;;5052482;28;20218;-69
2022/12/23 01:26:44;;;;;;;3.83;2.27;;;29.50;44.50;;;;;;5052775;28;20276;-67
2022/12/23 01:29:11;;;;;;;6.07;2.70;;;29.70;44.20;;;;;;5052663;28;20184;-68
2022/12/23 01:31:38;;;;;;;7.60;2.30;;;29.90;43.00;;;;;;5053040;28;20653;-68
2022/12/23 01:34:06;;;;;;;7.87;2.80;;;30.10;42.40;;;;;;5052497;28;20186;-69
2022/12/23 01:36:33;;;;;;;4.83;2.00;;;29.90;43.10;;;;;;5052769;28;20262;-71
2022/12/23 01:39:01;;;;;;;4.03;1.90;;;30.00;43.00;;;;;;5052043;28;20272;-67
2022/12/23 01:44:52;;;;;;;6.23;2.37;;;30.40;41.80;;;;;;5052964;28;20191;-66
2022/12/23 01:47:26;;;;;;;6.47;2.50;;;30.30;41.80;;;;;;5052547;28;20176;-67
2022/12/23 01:50:07;;;;;;;5.87;2.17;;;29.90;43.30;;;;;;5052438;28;20227;-67
2022/12/23 01:52:59;;;;;;;2.13;1.60;;;29.00;44.70;;;;;;5051087;28;20210;-67
2022/12/23 01:55:29;;;;;;;4.47;2.13;;;28.90;45.00;;;;;;5050288;28;20608;-66
2022/12/23 01:58:05;;;;;;;3.73;2.30;;;29.30;44.30;;;;;;5052678;28;20179;-67
2022/12/23 02:11:51;;;;;;;3.70;2.03;;;30.40;41.10;;;;;;5044728;28;20183;-69
2022/12/23 02:17:35;;;;;;;3.80;2.17;;;31.00;40.40;;;;;;5038364;28;20182;-74
2022/12/23 02:20:02;;;;;;;5.20;2.03;;;30.30;40.80;;;;;;5051256;28;20210;-68
2022/12/23 02:22:42;;;;;;;4.80;2.22;;;29.80;42.70;;;;;;5052921;28;20646;-70
2022/12/23 02:25:57;;;;;;;8.13;3.00;;;29.70;43.40;;;;;;5032238;28;20190;-70
2022/12/23 02:28:41;;;;;;;6.00;2.90;;;29.10;49.70;;;;;;5047516;28;20282;-71
2022/12/23 02:31:21;;;;;;;4.30;2.70;;;29.80;50.50;;;;;;5032620;28;20223;-68
2022/12/23 02:34:31;;;;;;;7.43;2.63;;;29.70;49.70;;;;;;5047426;28;20596;-71
2022/12/23 02:37:16;;;;;;;3.93;2.50;;;29.50;50.90;;;;;;5051751;28;20195;-69
2022/12/23 02:39:46;;;;;;;6.00;2.53;;;29.70;50.00;;;;;;5052725;28;20261;-68
2022/12/23 02:42:38;;;;;;;10.37;3.30;;;29.70;49.60;;;;;;5052520;28;20245;-67
2022/12/23 02:45:11;;;;;;;7.70;2.60;;;29.50;50.00;;;;;;5035083;28;20705;-67
2022/12/23 02:47:47;;;;;;;7.37;2.97;;;30.00;48.80;;;;;;5051313;28;20543;-67
2022/12/23 02:50:20;;;;;;;5.87;2.83;;;29.50;49.80;;;;;;5051543;28;20227;-68
2022/12/23 02:52:50;;;;;;;7.57;3.07;;;28.80;50.70;;;;;;5039436;28;20711;-68
2022/12/23 02:55:25;;;;;;;4.73;2.63;;;28.20;52.70;;;;;;5044096;28;20250;-67
2022/12/23 02:57:54;;;;;;;6.23;2.80;;;28.20;52.30;;;;;;5050445;28;20180;-68
2022/12/23 03:00:22;;;;;;;8.63;2.63;;;28.50;51.60;;;;;;5047432;28;20215;-66
2022/12/23 03:02:50;;;;;;;7.50;2.67;;;28.40;51.60;;;;;;5050492;28;20674;-69
2022/12/23 03:05:40;;;;;;;6.77;2.47;;;28.00;53.80;;;;;;5054435;28;20642;-73
2022/12/23 03:08:16;;;;;;;4.77;2.43;;;28.60;52.20;;;;;;5036977;28;20514;-69
2022/12/23 03:10:53;;;;;;;8.43;2.70;;;28.20;53.40;;;;;;5045335;28;20266;-68
2022/12/23 03:13:51;;;;;;;8.40;2.40;;;27.70;54.50;;;;;;5049226;28;20178;-66
2022/12/23 03:16:26;;;;;;;5.23;2.60;;;27.40;55.50;;;;;;5056407;28;20180;-69
2022/12/23 03:19:18;;;;;;;5.07;2.40;;;27.30;55.70;;;;;;5055381;28;20666;-68
2022/12/23 03:22:08;;;;;;;5.63;2.53;;;27.30;55.40;;;;;;5053516;28;20616;-68
2022/12/23 03:24:56;;;;;;;9.90;2.67;;;27.20;56.00;;;;;;5054689;28;20554;-70
2022/12/23 03:27:38;;;;;;;5.30;2.20;;;27.30;56.00;;;;;;5054906;28;20646;-72
2022/12/23 03:30:09;;;;;;;5.97;2.40;;;28.10;54.10;;;;;;5042801;28;20180;-71
2022/12/23 03:33:09;;;;;;;2.50;1.77;;;28.30;53.40;;;;;;5052194;28;20310;-65
2022/12/23 03:35:50;;;;;;;3.87;2.00;;;28.10;52.60;;;;;;5053190;28;20196;-67
2022/12/23 03:38:18;;;;;;;4.80;1.90;;;28.60;51.30;;;;;;5054959;28;20179;-69
2022/12/23 03:40:57;;;;;;;6.93;2.17;;;28.80;52.30;;;;;;5054965;28;20196;-70
2022/12/23 03:43:34;;;;;;;5.23;2.03;;;29.10;50.60;;;;;;5054793;28;20176;-71
2022/12/23 03:46:08;;;;;;;4.17;2.00;;;28.80;51.50;;;;;;5054840;28;20190;-69
2022/12/23 03:48:48;;;;;;;4.07;1.90;;;29.10;50.20;;;;;;5054675;28;20180;-69
2022/12/23 03:51:24;;;;;;;5.47;1.80;;;29.10;49.10;;;;;;5054922;28;20195;-66
2022/12/23 03:54:01;;;;;;;7.00;2.20;;;28.80;50.40;;;;;;5049660;28;20647;-67
2022/12/23 03:56:40;;;;;;;4.73;2.20;;;29.00;48.30;;;;;;5042000;28;20184;-67
2022/12/23 03:59:20;;;;;;;4.77;1.70;;;29.00;48.10;;;;;;5054611;28;20666;-66
2022/12/23 04:02:15;;;;;;;7.90;2.60;;;29.90;47.00;;;;;;5053279;28;20273;-67
2022/12/23 04:05:08;;;;;;;6.60;2.72;;;29.40;47.10;;;;;;5052744;28;20646;-64
2022/12/23 04:07:56;;;;;;;7.27;2.73;;;29.90;45.80;;;;;;5045030;28;20650;-67
2022/12/23 04:10:24;;;;;;;6.90;2.63;;;30.30;45.50;;;;;;5054401;28;20191;-68
2022/12/23 04:12:52;;;;;;;5.43;2.67;;;30.00;45.90;;;;;;5053638;28;20172;-67
2022/12/23 04:15:24;;;;;;;4.90;2.58;;;30.00;46.60;;;;;;5047678;28;20180;-66
2022/12/23 04:17:52;;;;;;;4.57;2.40;;;30.80;45.10;;;;;;5044132;28;20183;-67
2022/12/23 04:20:20;;;;;;;3.80;2.67;;;30.40;45.30;;;;;;5044812;28;20219;-66
2022/12/23 04:22:47;;;;;;;6.40;2.60;;;30.70;44.70;;;;;;5050811;28;20176;-68
2022/12/23 04:25:16;;;;;;;6.65;3.00;;;31.30;43.00;;;;;;5053169;28;20661;-65
2022/12/23 04:27:44;;;;;;;4.30;2.35;;;31.10;43.20;;;;;;5053304;28;20263;-67
2022/12/23 04:30:15;;;;;;;4.78;2.75;;;31.10;43.90;;;;;;5053961;28;20172;-66
2022/12/23 04:32:42;;;;;;;4.72;2.63;;;30.70;44.70;;;;;;5053275;28;20681;-66
2022/12/23 04:35:11;;;;;;;5.28;2.53;;;30.60;44.50;;;;;;5049337;28;20195;-67
2022/12/23 04:37:38;;;;;;;4.00;2.40;;;31.20;44.40;;;;;;5051063;28;20183;-66
2022/12/23 04:40:07;;;;;;;3.88;2.13;;;30.70;44.50;;;;;;5040779;28;20562;-66
2022/12/23 04:42:35;;;;;;;3.90;2.10;;;30.40;45.20;;;;;;5043577;28;20640;-71
2022/12/23 04:45:02;;;;;;;3.45;1.90;;;31.00;44.40;;;;;;5052247;28;20172;-69
2022/12/23 04:47:29;;;;;;;3.72;1.98;;;31.40;43.40;;;;;;5048320;28;20180;-66
2022/12/23 04:49:57;;;;;;;5.10;2.85;;;31.40;42.90;;;;;;5051339;28;20576;-72
2022/12/23 04:52:24;;;;;;;5.82;2.17;;;31.40;42.10;;;;;;5052509;28;20246;-69
2022/12/23 04:54:51;;;;;;;4.15;2.50;;;31.20;42.90;;;;;;5052866;28;20181;-68
2022/12/23 04:57:19;;;;;;;5.65;2.10;;;30.40;44.80;;;;;;5040793;28;20169;-68
2022/12/23 04:59:46;;;;;;;3.58;2.25;;;30.20;45.10;;;;;;5051572;28;20613;-71
2022/12/23 05:02:13;;;;;;;5.18;2.47;;;30.00;45.20;;;;;;5048850;28;20172;-72
2022/12/23 05:04:41;;;;;;;4.40;2.50;;;30.20;44.70;;;;;;5050751;28;20590;-68
2022/12/23 05:07:10;;;;;;;4.60;2.00;;;31.30;42.30;;;;;;5053090;28;20255;-73
2022/12/23 05:09:37;;;;;;;6.30;2.25;;;31.60;40.80;;;;;;5052041;28;20262;-66
2022/12/23 05:12:04;;;;;;;5.70;3.08;;;32.20;40.30;;;;;;5059807;28;20516;-67
2022/12/23 05:14:32;;;;;;;6.85;2.38;;;32.40;39.70;;;;;;5052985;28;20649;-67
2022/12/23 05:16:59;;;;;;;3.85;1.80;;;32.60;38.90;;;;;;5052844;28;20191;-66
2022/12/23 05:19:26;;;;;;;5.03;2.10;;;31.80;39.50;;;;;;5052854;28;20655;-67
2022/12/23 05:21:53;;;;;;;3.95;1.60;;;31.60;40.10;;;;;;5052985;28;20213;-65
2022/12/23 05:24:21;;;;;;;4.90;1.63;;;32.40;37.20;;;;;;5053256;28;20259;-67
2022/12/23 05:26:48;;;;;;;4.18;1.90;;;33.20;36.40;;;;;;5052681;28;20168;-66
2022/12/23 05:29:16;;;;;;;4.78;1.85;;;32.50;37.50;;;;;;5053349;28;20176;-67
2022/12/23 05:31:43;;;;;;;4.43;1.55;;;31.80;37.30;;;;;;5053009;28;20172;-67
2022/12/23 05:34:10;;;;;;;3.75;1.42;;;30.90;38.40;;;;;;5041437;28;20177;-65
2022/12/23 05:36:38;;;;;;;4.32;1.90;;;30.20;40.80;;;;;;5047665;28;20207;-68
2022/12/23 05:39:06;;;;;;;3.45;1.70;;;30.40;41.00;;;;;;5037657;28;20244;-66
2022/12/23 05:41:33;;;;;;;3.85;1.60;;;31.00;38.80;;;;;;5050433;28;20222;-66
2022/12/23 05:44:00;;;;;;;2.45;1.52;;;31.90;37.70;;;;;;5052169;28;20256;-67
2022/12/23 05:46:27;;;;;;;3.15;1.30;;;31.00;39.20;;;;;;5053037;28;20646;-69
2022/12/23 05:48:56;;;;;;;2.55;1.48;;;30.20;40.60;;;;;;5049859;28;20724;-67
2022/12/23 05:51:23;;;;;;;3.20;1.83;;;30.10;40.80;;;;;;5051863;28;20662;-67
2022/12/23 05:53:50;;;;;;;2.83;1.73;;;29.50;41.70;;;;;;5050776;28;20783;-66
2022/12/23 05:56:18;;;;;;;2.63;1.77;;;28.80;42.90;;;;;;5051854;28;20184;-67
2022/12/23 05:58:45;;;;;;;3.33;1.50;;;28.40;43.80;;;;;;5036829;28;20172;-66
2022/12/23 06:01:12;;;;;;;4.50;1.50;;;28.10;44.50;;;;;;5039478;28;20175;-68
2022/12/23 06:03:40;;;;;;;4.90;1.70;;;27.70;45.10;;;;;;5041938;28;20184;-66
2022/12/23 06:06:07;;;;;;;6.63;1.70;;;28.60;44.00;;;;;;5047021;28;20198;-66
2022/12/23 06:08:35;;;;;;;3.70;1.40;;;29.80;40.50;;;;;;5041157;28;20181;-65
2022/12/23 06:11:04;;;;;;;1.92;1.40;;;30.90;38.90;;;;;;5049301;28;20334;-66
2022/12/23 06:13:32;;;;;;;3.40;1.88;;;30.10;39.30;;;;;;5052058;28;20180;-66
2022/12/23 06:15:59;;;;;;;2.17;1.47;;;30.20;39.70;;;;;;5052985;28;20190;-67
2022/12/23 06:18:26;;;;;;;3.72;1.70;;;30.10;39.80;;;;;;5052109;28;20250;-67
2022/12/23 06:20:53;;;;;;;5.57;1.50;;;30.20;40.10;;;;;;5050706;28;20180;-66
2022/12/23 06:23:21;;;;;;;3.33;1.50;;;30.80;38.70;;;;;;5048888;28;20180;-66
2022/12/23 06:25:48;;;;;;;3.17;1.88;;;30.80;38.30;;;;;;5051266;28;20180;-67
2022/12/23 06:28:15;;;;;;;1.67;1.30;;;30.80;37.90;;;;;;5044684;28;20259;-68
2022/12/23 06:30:43;;;;;;;3.60;1.50;;;30.10;39.50;;;;;;5056360;28;20726;-66
2022/12/23 06:33:10;;;;;;;2.42;1.42;;;30.10;39.80;;;;;;5056097;28;20207;-66
2022/12/23 06:35:37;;;;;;;4.70;1.35;;;30.70;39.00;;;;;;5055980;28;20172;-67
2022/12/23 06:38:05;;;;;;;2.33;1.40;;;30.30;38.40;;;;;;5056172;28;20536;-67
2022/12/23 06:40:32;;;;;;;5.90;1.42;;;31.00;37.40;;;;;;5056158;28;20239;-67
2022/12/23 06:42:59;;;;;;;2.08;1.50;;;31.50;36.90;;;;;;5055782;28;20237;-66
2022/12/23 06:45:27;;;;;;;3.35;1.20;;;31.70;36.20;;;;;;5055322;28;20567;-67
2022/12/23 06:47:54;;;;;;;3.22;1.83;;;31.80;35.90;;;;;;5048496;28;20873;-66
2022/12/23 06:50:21;;;;;;;3.47;1.60;;;30.20;39.10;;;;;;5054334;28;20265;-67
2022/12/23 06:52:48;;;;;;;4.47;1.80;;;28.70;42.80;;;;;;5055723;28;20171;-66
2022/12/23 06:55:16;;;;;;;2.77;1.37;;;28.10;44.20;;;;;;5057823;28;20259;-67
2022/12/23 06:57:44;;;;;;;5.93;1.77;;;27.60;44.50;;;;;;5051868;28;20232;-66
2022/12/23 07:00:12;;;;;;;2.53;1.70;;;27.40;45.50;;;;;;5054063;28;20207;-68
2022/12/23 07:02:39;;;;;;;3.83;1.70;;;27.10;46.10;;;;;;5054389;28;20179;-73
2022/12/23 07:05:07;;;;;;;4.80;1.80;;;27.60;45.20;;;;;;5054771;28;20211;-70
2022/12/23 07:07:34;;;;;;;4.30;1.73;;;28.30;44.70;;;;;;5055143;28;20183;-68
2022/12/23 07:10:01;;;;;;;4.37;1.70;;;29.10;42.90;;;;;;5054590;28;20342;-71
2022/12/23 07:12:29;;;;;;;5.57;1.87;;;29.80;41.30;;;;;;5054753;28;20709;-69
2022/12/23 07:14:56;;;;;;;5.57;1.63;;;29.80;40.50;;;;;;5055453;28;20271;-67
2022/12/23 07:17:23;;;;;;;3.10;1.63;;;29.10;42.30;;;;;;5052795;28;20176;-72
2022/12/23 07:19:51;;;;;;;4.80;2.03;;;28.60;43.10;;;;;;5053514;28;20294;-70
2022/12/23 07:22:18;;;;;;;5.40;1.60;;;28.10;44.30;;;;;;5054594;28;20233;-67
2022/12/23 07:24:45;;;;;;;3.00;1.60;;;27.80;44.80;;;;;;5054660;28;20341;-69
2022/12/23 07:27:13;;;;;;;4.57;2.13;;;27.70;45.30;;;;;;5052837;28;20921;-68
2022/12/23 07:29:40;;;;;;;2.87;1.73;;;27.30;46.40;;;;;;5052660;28;20179;-67
2022/12/23 07:32:07;;;;;;;3.60;2.03;;;27.10;47.10;;;;;;5052822;28;20171;-70
2022/12/23 07:34:35;;;;;;;3.13;1.77;;;27.10;46.60;;;;;;5051614;28;20654;-68
2022/12/23 07:37:02;;;;;;;4.97;1.90;;;27.30;45.80;;;;;;5052487;28;20258;-68
2022/12/23 07:39:29;;;;;;;4.30;1.50;;;27.10;47.10;;;;;;5053664;28;20343;-70
2022/12/23 07:41:57;;;;;;;4.33;1.77;;;26.90;47.00;;;;;;5054113;28;20176;-67
2022/12/23 07:44:24;;;;;;;4.70;1.87;;;27.20;45.50;;;;;;5054375;28;20179;-67
2022/12/23 07:46:51;;;;;;;3.87;1.80;;;26.90;45.70;;;;;;5053831;28;20179;-66
2022/12/23 07:49:19;;;;;;;5.53;1.67;;;26.60;46.30;;;;;;5054161;28;20339;-67
2022/12/23 07:51:46;;;;;;;4.03;1.70;;;26.60;46.30;;;;;;5053447;28;20257;-71
2022/12/23 07:54:13;;;;;;;7.17;2.60;;;26.60;46.00;;;;;;5053289;28;20219;-67
2022/12/23 07:56:41;;;;;;;5.37;2.60;;;26.60;46.30;;;;;;5051001;28;20257;-67
2022/12/23 07:59:08;;;;;;;4.23;2.20;;;26.70;46.20;;;;;;5051755;28;20321;-67
2022/12/23 08:01:38;;;;;;;5.40;2.57;;;26.60;46.70;;;;;;5044563;28;20266;-69
2022/12/23 08:04:05;;;;;;;5.50;2.30;;;26.40;46.10;;;;;;5053677;28;20535;-66
2022/12/23 08:06:35;;;;;;;5.23;2.13;;;26.10;47.40;;;;;;5047888;28;20181;-66
2022/12/23 08:09:05;;;;;;;4.00;2.30;;;26.00;47.30;;;;;;5054296;28;20298;-67
2022/12/23 08:11:32;;;;;;;7.27;2.40;;;25.90;54.80;;;;;;5053663;28;20202;-67
2022/12/23 08:14:00;;;;;;;5.23;2.63;;;25.70;57.40;;;;;;5054588;28;20183;-66
2022/12/23 08:16:27;;;;;;;4.50;2.50;;;25.40;58.80;;;;;;5051811;28;20176;-67
2022/12/23 08:18:54;;;;;;;6.07;2.60;;;25.30;59.00;;;;;;5053421;28;20210;-66
2022/12/23 08:21:22;;;;;;;6.30;2.60;;;25.20;59.30;;;;;;5052553;28;20283;-66
2022/12/23 08:23:50;;;;;;;6.63;2.67;;;25.00;60.10;;;;;;5050971;28;20176;-67
2022/12/23 08:26:20;;;;;;;6.97;2.87;;;24.90;60.00;;;;;;5053337;28;20187;-66
2022/12/23 08:28:48;;;;;;;5.97;2.60;;;24.80;60.60;;;;;;5053216;28;20184;-68
2022/12/23 08:31:17;;;;;;;5.60;2.77;;;24.70;60.60;;;;;;5053796;28;20616;-66
2022/12/23 08:33:47;;;;;;;5.37;2.97;;;24.50;60.60;;;;;;5053746;28;20191;-66
2022/12/23 08:36:17;;;;;;;4.07;2.43;;;24.40;60.70;;;;;;5053347;28;20184;-67
2022/12/23 08:38:45;;;;;;;4.97;3.00;;;24.50;59.20;;;;;;5053802;28;20665;-66
2022/12/23 08:41:15;;;;;;;5.00;2.33;;;24.50;59.30;;;;;;5053525;28;20175;-66
2022/12/23 08:43:43;;;;;;;6.37;2.73;;;24.60;59.20;;;;;;5053847;28;20213;-72
2022/12/23 08:46:11;;;;;;;3.93;2.40;;;24.50;58.50;;;;;;5053846;28;20183;-66
2022/12/23 08:48:39;;;;;;;6.37;2.67;;;24.30;58.30;;;;;;5053685;28;20184;-70
2022/12/23 08:51:12;;;;;;;6.40;2.40;;;24.30;58.50;;;;;;5052527;28;20196;-66
2022/12/23 08:53:40;;;;;;;5.60;2.50;;;24.30;58.70;;;;;;5054179;28;20188;-66
2022/12/23 08:56:10;;;;;;;7.53;2.33;;;24.20;59.20;;;;;;5036998;28;20176;-67
2022/12/23 08:58:41;;;;;;;4.90;3.17;;;24.20;59.20;;;;;;5052774;28;20267;-66
2022/12/23 09:01:10;;;;;;;10.10;3.30;;;24.10;59.60;;;;;;5052031;28;20642;-65
2022/12/23 09:03:38;;;;;;;6.60;2.60;;;24.20;59.00;;;;;;5053523;28;20200;-66
2022/12/23 09:06:14;;;;;;;4.83;2.70;;;24.10;58.40;;;;;;5053055;28;20650;-66
2022/12/23 09:08:42;;;;;;;3.87;2.30;;;24.00;58.80;;;;;;5053002;28;20195;-67
2022/12/23 09:11:11;;;;;;;7.80;2.27;;;24.00;59.10;;;;;;5070583;28;20179;-67
2022/12/23 09:13:39;;;;;;;6.20;2.67;;;24.00;59.30;;;;;;5052839;28;20195;-66
2022/12/23 09:16:07;;;;;;;4.80;2.13;;;24.00;59.10;;;;;;5052957;28;20176;-67
2022/12/23 09:18:35;;;;;;;4.20;2.40;;;24.00;59.40;;;;;;5052847;28;20645;-67
2022/12/23 09:21:07;;;;;;;5.53;2.13;;;23.90;59.50;;;;;;5052742;28;20176;-66
2022/12/23 09:23:35;;;;;;;6.07;2.27;;;23.90;59.60;;;;;;5052602;28;20184;-66
2022/12/23 09:26:05;;;;;;;3.57;2.40;;;23.80;60.60;;;;;;5053628;28;20215;-67
2022/12/23 09:28:32;;;;;;;6.07;2.70;;;23.80;60.10;;;;;;5053087;28;20172;-68
2022/12/23 09:31:10;;;;;;;4.47;2.10;;;23.70;60.40;;;;;;5053127;28;20180;-68
2022/12/23 09:33:38;;;;;;;5.33;2.47;;;23.70;61.30;;;;;;5053080;28;20263;-66
2022/12/23 09:36:06;;;;;;;8.10;2.47;;;23.80;61.40;;;;;;5052699;28;20651;-67
2022/12/23 09:38:33;;;;;;;6.90;2.30;;;23.80;61.30;;;;;;5054106;28;20643;-66
2022/12/23 09:41:16;;;;;;;6.57;2.43;;;23.80;61.30;;;;;;5052699;28;20585;-67
2022/12/23 09:44:04;;;;;;;6.10;2.20;;;23.70;61.20;;;;;;5053492;28;20176;-74
2022/12/23 09:46:33;;;;;;;4.60;2.73;;;23.80;61.20;;;;;;5052827;28;20187;-69
2022/12/23 09:49:04;;;;;;;5.43;2.70;;;23.80;61.20;;;;;;5052391;28;20212;-69
2022/12/23 09:51:32;;;;;;;6.83;2.90;;;23.70;61.40;;;;;;5050722;28;20191;-68
2022/12/23 09:54:06;;;;;;;6.00;2.97;;;23.70;61.70;;;;;;5051867;28;20172;-72
2022/12/23 09:56:54;;;;;;;6.77;3.17;;;23.80;61.50;;;;;;5047170;28;20176;-69
2022/12/23 09:59:27;;;;;;;6.43;3.20;;;23.70;61.50;;;;;;5050493;28;20202;-71
2022/12/23 10:02:18;;;;;;;5.63;3.00;;;23.70;61.90;;;;;;5053017;28;20211;-72
2022/12/23 10:05:04;;;;;;;10.40;3.30;;;23.70;62.30;;;;;;5038471;28;20764;-67
2022/12/23 10:07:48;;;;;;;6.53;3.60;;;23.60;62.40;;;;;;5040418;28;20179;-73
2022/12/23 10:10:47;;;;;;;5.90;2.87;;;23.60;62.60;;;;;;5038716;28;20180;-66
2022/12/23 10:13:34;;;;;;;6.73;3.47;;;23.60;62.70;;;;;;5048168;28;20604;-67
2022/12/23 10:16:11;;;;;;;6.47;3.43;;;23.60;62.60;;;;;;5043095;28;20263;-67
2022/12/23 10:18:51;;;;;;;6.83;3.27;;;23.50;63.00;;;;;;5046940;28;20721;-68
2022/12/23 10:21:21;;;;;;;5.07;3.37;;;23.50;63.30;;;;;;5041681;28;20594;-66
2022/12/23 10:23:52;;;;;;;5.90;3.10;;;23.40;62.80;;;;;;5048532;28;20191;-66
2022/12/23 10:26:33;;;;;;;6.23;3.10;;;23.30;62.70;;;;;;5050007;28;20184;-65
2022/12/23 10:29:19;;;;;;;5.27;2.77;;;23.30;63.20;;;;;;5046466;28;20184;-66
2022/12/23 10:32:17;;;;;;;5.87;2.77;;;23.20;63.50;;;;;;5026566;28;22288;-66
2022/12/23 10:34:59;;;;;;;4.93;2.23;;;23.20;62.60;;;;;;5035212;28;20187;-66
2022/12/23 10:37:41;;;;;;;5.77;2.20;;;23.20;62.20;;;;;;5046017;28;20191;-66
2022/12/23 10:40:21;;;;;;;7.23;2.77;;;23.20;62.70;;;;;;5049586;28;20224;-66
2022/12/23 10:43:15;;;;;;;4.63;2.60;;;23.20;63.20;;;;;;5045925;28;20271;-65
2022/12/23 10:45:51;;;;;;;3.87;2.20;;;23.20;63.60;;;;;;5048884;28;20187;-65
2022/12/23 10:48:18;;;;;;;4.60;2.50;;;23.20;63.80;;;;;;5048760;28;21107;-66
2022/12/23 10:50:54;;;;;;;5.43;2.60;;;23.10;64.60;;;;;;5050704;28;20259;-66
2022/12/23 10:53:34;;;;;;;3.77;2.40;;;23.10;65.00;;;;;;5050389;28;20183;-67
2022/12/23 10:56:03;;;;;;;7.07;2.83;;;23.00;65.70;;;;;;5048602;28;20230;-67
2022/12/23 10:58:31;;;;;;;5.37;2.87;;;23.00;66.30;;;;;;5049357;28;20263;-66
2022/12/23 11:01:03;;;;;;;5.77;3.00;;;23.00;67.00;;;;;;5049838;28;20266;-70
2022/12/23 11:04:09;;;;;;;8.10;3.50;;;23.00;67.70;;;;;;5044734;28;20246;-67
2022/12/23 11:06:45;;;;;;;7.70;3.33;;;23.00;68.00;;;;;;5042737;28;20200;-67
2022/12/23 11:09:19;;;;;;;9.87;3.30;;;22.80;68.70;;;;;;5039067;28;20532;-66
2022/12/23 11:12:08;;;;;;;8.00;3.63;;;22.80;69.00;;;;;;5052983;28;20171;-66
2022/12/23 11:14:41;;;;;;;5.37;3.00;;;22.80;69.30;;;;;;5054998;28;20188;-67
2022/12/23 11:17:22;;;;;;;5.47;3.33;;;22.80;69.80;;;;;;5054576;28;20188;-67
2022/12/23 11:20:09;;;;;;;6.33;3.63;;;22.80;70.60;;;;;;5051848;28;20212;-66
2022/12/23 11:22:50;;;;;;;11.70;3.57;;;22.70;71.30;;;;;;5051407;28;20199;-68
2022/12/23 11:25:39;;;;;;;11.63;3.60;;;22.70;71.80;;;;;;5053965;28;20180;-74
2022/12/23 11:28:14;;;;;;;9.13;3.13;;;22.60;72.20;;;;;;5054682;28;20174;-67
2022/12/23 11:30:55;;;;;;;9.33;3.10;;;22.60;72.20;;;;;;5055255;28;20183;-66
2022/12/23 11:33:27;;;;;;;7.00;3.00;;;22.60;72.20;;;;;;5055053;28;20654;-76
2022/12/23 11:36:06;;;;;;;9.50;3.40;;;22.60;72.10;;;;;;5048789;28;20215;-72
2022/12/23 11:38:47;;;;;;;9.07;3.00;;;22.50;72.10;;;;;;5051327;28;20183;-74
2022/12/23 11:41:27;;;;;;;7.50;3.00;;;22.50;72.30;;;;;;5054889;28;20195;-73
2022/12/23 11:44:10;;;;;;;7.00;2.60;;;22.50;72.30;;;;;;5055335;28;20168;-76
2022/12/23 11:46:37;;;;;;;24.70;15.40;;;22.50;72.40;;;;;;5054778;28;20219;-68
2022/12/23 11:49:26;;;;;;;10.13;6.60;;;22.50;72.50;;;;;;5054673;28;20219;-77
2022/12/23 11:52:13;;;;;;;6.07;4.13;;;22.40;72.40;;;;;;5053942;28;20195;-73
2022/12/23 11:54:41;;;;;;;11.20;3.17;;;22.50;72.30;;;;;;5053700;28;20184;-71
2022/12/23 11:57:16;;;;;;;8.27;3.13;;;22.40;72.20;;;;;;5047970;28;20169;-72
2022/12/23 11:59:49;;;;;;;6.43;2.90;;;22.40;72.10;;;;;;5052816;28;20218;-77
2022/12/23 12:02:28;;;;;;;7.73;3.40;;;22.30;72.20;;;;;;5054054;28;20582;-73
2022/12/23 12:05:15;;;;;;;10.57;3.40;;;22.30;72.50;;;;;;5054046;28;20184;-76
2022/12/23 12:07:47;;;;;;;5.37;3.33;;;22.30;72.60;;;;;;5054213;28;20176;-76
2022/12/23 12:10:21;;;;;;;6.63;3.10;;;22.30;72.50;;;;;;5054336;28;20241;-67
2022/12/23 12:12:57;;;;;;;6.27;2.97;;;22.30;72.60;;;;;;5052870;28;20294;-77
2022/12/23 12:15:43;;;;;;;8.50;2.97;;;22.20;72.60;;;;;;5054213;28;20190;-70
2022/12/23 12:18:19;;;;;;;5.23;3.40;;;22.20;72.80;;;;;;5052654;28;20184;-73
2022/12/23 12:20:52;;;;;;;4.23;2.70;;;22.10;73.00;;;;;;5054266;28;20234;-72
2022/12/23 12:23:43;;;;;;;6.40;3.23;;;22.10;73.00;;;;;;5053641;28;20266;-73
2022/12/23 12:26:37;;;;;;;4.67;2.90;;;22.00;73.10;;;;;;5053779;28;20191;-77
2022/12/23 12:29:15;;;;;;;5.50;3.13;;;22.00;73.20;;;;;;5049067;28;20235;-77
2022/12/23 12:31:57;;;;;;;4.27;2.77;;;21.90;73.40;;;;;;5053776;28;20179;-76
2022/12/23 12:34:45;;;;;;;5.83;2.57;;;21.90;73.40;;;;;;5054282;28;20180;-74
2022/12/23 12:37:58;;;;;;;6.27;3.00;;;21.90;73.60;;;;;;5044655;28;20179;-77
2022/12/23 12:40:42;;;;;;;5.00;2.40;;;21.90;73.90;;;;;;5070177;28;20207;-67
2022/12/23 12:43:24;;;;;;;8.20;3.20;;;21.80;73.80;;;;;;5063809;28;20169;-67
2022/12/23 12:46:06;;;;;;;7.23;3.17;;;21.80;73.90;;;;;;5056084;28;20184;-67
2022/12/23 12:49:07;;;;;;;4.90;2.90;;;21.80;74.00;;;;;;5049468;28;20180;-66
2022/12/23 12:51:48;;;;;;;8.00;2.67;;;21.80;74.10;;;;;;5046802;28;20192;-68
2022/12/23 12:54:41;;;;;;;5.70;2.80;;;21.70;74.20;;;;;;5053723;28;20184;-67
2022/12/23 12:57:18;;;;;;;8.47;2.93;;;21.70;74.40;;;;;;5045722;28;20638;-71
2022/12/23 12:59:52;;;;;;;5.87;2.93;;;21.70;74.70;;;;;;5053580;28;20214;-67
2022/12/23 13:02:47;;;;;;;4.67;3.33;;;21.70;74.80;;;;;;5046133;28;20167;-66
2022/12/23 13:05:14;;;;;;;9.97;3.67;;;21.60;74.90;;;;;;5036646;28;20179;-67
2022/12/23 13:07:51;;;;;;;7.50;3.93;;;21.60;74.90;;;;;;5053217;28;20172;-67
2022/12/23 13:11:03;;;;;;;7.00;3.50;;;21.60;75.00;;;;;;5052048;28;20187;-67
2022/12/23 13:13:58;;;;;;;6.43;3.60;;;21.50;75.10;;;;;;5052687;28;20199;-69
2022/12/23 13:17:04;;;;;;;7.27;3.57;;;21.50;75.50;;;;;;5052661;28;20180;-75
2022/12/23 13:19:48;;;;;;;7.50;4.57;;;21.50;75.80;;;;;;5042482;28;20199;-67
2022/12/23 13:22:27;;;;;;;7.53;4.43;;;21.40;75.90;;;;;;5052967;28;20176;-69
2022/12/23 13:25:33;;;;;;;8.93;4.70;;;21.40;76.20;;;;;;5049930;28;20171;-67
2022/12/23 13:28:12;;;;;;;9.90;4.13;;;21.50;76.50;;;;;;5049733;28;20203;-70
2022/12/23 13:31:10;;;;;;;7.33;4.20;;;21.50;76.90;;;;;;5053076;28;20198;-66
2022/12/23 13:33:58;;;;;;;11.97;4.13;;;21.50;77.30;;;;;;5051712;28;20190;-72
2022/12/23 13:36:29;;;;;;;7.23;4.30;;;21.50;77.80;;;;;;5051399;28;20207;-67
2022/12/23 13:38:56;;;;;;;8.57;3.97;;;21.50;78.40;;;;;;5050468;28;20184;-66
2022/12/23 13:41:46;;;;;;;9.63;4.43;;;21.50;78.80;;;;;;5040378;28;20185;-66
2022/12/23 13:44:14;;;;;;;11.80;4.50;;;21.40;79.70;;;;;;5042663;28;20218;-66
2022/12/23 13:46:59;;;;;;;9.80;3.63;;;21.40;80.50;;;;;;5052716;28;20180;-66
2022/12/23 13:49:55;;;;;;;11.43;4.17;;;21.40;80.90;;;;;;5052486;28;20302;-66
2022/12/23 13:52:49;;;;;;;8.13;4.00;;;21.40;81.00;;;;;;5051763;28;20693;-67
2022/12/23 13:55:43;;;;;;;7.20;3.87;;;21.30;80.60;;;;;;5049314;28;20662;-66